Time;durP1;ratioP1;P1;durP2;ratioP2;P2;SDS_P1;SDS_P2;PMS_P1;PMS_P2;Temp;Humidity;BMP_temperature;BMP_pressure;BME280_temperature;BME280_humidity;BME280_pressure;Samples;Min_cycle;Max_cycle;Signal;HPM_P1;HPM_P2
2023/05/17 00:02:10;;;;;;;3.10;1.33;;;27.40;99.90;;;;;;4927869;29;20219;-90
2023/05/17 00:04:43;;;;;;;3.07;1.80;;;27.30;99.90;;;;;;4930318;29;20245;-90
2023/05/17 00:07:17;;;;;;;5.10;1.90;;;27.10;99.90;;;;;;4915732;29;20232;-89
2023/05/17 00:09:48;;;;;;;3.57;1.70;;;27.10;99.90;;;;;;4921185;29;20225;-91
2023/05/17 00:12:19;;;;;;;7.40;1.70;;;27.20;99.90;;;;;;4906802;29;20220;-90
2023/05/17 00:14:50;;;;;;;6.37;1.73;;;27.50;99.90;;;;;;4918186;29;20217;-91
2023/05/17 00:17:20;;;;;;;3.27;1.70;;;27.70;99.90;;;;;;4909196;29;20701;-91
2023/05/17 00:19:53;;;;;;;2.65;1.77;;;27.70;99.90;;;;;;4907032;29;20221;-90
2023/05/17 00:22:24;;;;;;;7.25;2.13;;;27.70;99.90;;;;;;4925026;29;20212;-91
2023/05/17 00:24:55;;;;;;;5.88;2.25;;;27.60;99.90;;;;;;4898886;29;20292;-91
2023/05/17 00:27:26;;;;;;;4.97;2.10;;;27.80;99.90;;;;;;4903752;29;20213;-90
2023/05/17 00:29:57;;;;;;;5.20;1.90;;;27.90;99.90;;;;;;4913595;29;20205;-90
2023/05/17 00:32:28;;;;;;;3.43;1.87;;;27.80;99.90;;;;;;4917549;29;20248;-91
2023/05/17 00:35:00;;;;;;;5.03;2.00;;;27.70;99.90;;;;;;4912297;29;20622;-90
2023/05/17 00:37:31;;;;;;;2.67;1.80;;;27.70;99.90;;;;;;4923106;29;20256;-90
2023/05/17 00:40:02;;;;;;;6.95;2.45;;;27.60;99.90;;;;;;4930397;29;20212;-90
2023/05/17 00:42:33;;;;;;;3.47;2.00;;;27.20;99.90;;;;;;4918565;29;20254;-90
2023/05/17 00:45:04;;;;;;;2.67;2.03;;;27.10;99.90;;;;;;4917691;29;20220;-90
2023/05/17 00:47:36;;;;;;;3.13;1.90;;;27.50;99.90;;;;;;4913559;29;20544;-91
2023/05/17 00:50:10;;;;;;;4.80;1.77;;;27.40;99.90;;;;;;4916061;29;20649;-89
2023/05/17 00:52:41;;;;;;;5.23;2.20;;;27.20;99.90;;;;;;4925181;29;20254;-90
2023/05/17 00:55:12;;;;;;;2.67;1.80;;;27.30;99.90;;;;;;4907152;29;20608;-91
2023/05/17 00:57:43;;;;;;;6.10;2.07;;;27.20;99.90;;;;;;4897354;29;20217;-89
2023/05/17 01:00:14;;;;;;;7.40;2.20;;;27.30;99.90;;;;;;4902906;29;20216;-89
2023/05/17 01:02:47;;;;;;;4.03;2.00;;;27.20;99.90;;;;;;4911747;29;20285;-90
2023/05/17 01:05:20;;;;;;;3.63;2.00;;;27.50;99.90;;;;;;4913731;29;20312;-91
2023/05/17 01:07:51;;;;;;;3.33;2.20;;;27.70;99.90;;;;;;4912812;29;20218;-90
2023/05/17 01:10:23;;;;;;;6.53;2.37;;;27.80;99.90;;;;;;4920183;29;20212;-90
2023/05/17 01:13:04;;;;;;;2.73;2.00;;;27.20;99.90;;;;;;4914491;29;20312;-89
2023/05/17 01:15:39;;;;;;;3.10;1.93;;;27.10;99.90;;;;;;4908616;29;20243;-90
2023/05/17 01:18:18;;;;;;;2.83;1.80;;;26.90;99.90;;;;;;4905074;29;20209;-90
2023/05/17 01:20:54;;;;;;;5.13;2.00;;;26.70;99.90;;;;;;4917636;29;20216;-89
2023/05/17 01:23:42;;;;;;;5.07;2.43;;;26.60;99.90;;;;;;4916693;29;20584;-89
2023/05/17 01:26:17;;;;;;;3.73;1.97;;;26.40;99.90;;;;;;4900527;29;20224;-86
2023/05/17 01:28:54;;;;;;;4.30;2.23;;;26.40;99.90;;;;;;4898173;29;20292;-87
2023/05/17 01:31:25;;;;;;;3.33;2.27;;;26.40;99.90;;;;;;4899950;29;20284;-86
2023/05/17 01:33:57;;;;;;;4.60;2.43;;;26.60;99.90;;;;;;4911283;29;20236;-87
2023/05/17 01:36:28;;;;;;;5.43;2.13;;;26.40;99.90;;;;;;4911245;29;20245;-85
2023/05/17 01:39:00;;;;;;;2.17;1.80;;;26.80;99.90;;;;;;4919366;29;20295;-90
2023/05/17 01:41:37;;;;;;;7.10;2.13;;;27.40;99.90;;;;;;4927282;29;20591;-91
2023/05/17 01:44:18;;;;;;;4.13;2.57;;;27.90;99.90;;;;;;4920661;29;20208;-92
2023/05/17 01:46:54;;;;;;;22.43;3.40;;;28.00;99.90;;;;;;4903038;29;20244;-88
2023/05/17 01:49:29;;;;;;;7.63;2.20;;;27.50;99.90;;;;;;4935591;29;20211;-86
2023/05/17 01:52:15;;;;;;;16.43;3.40;;;27.10;99.90;;;;;;4911710;29;20205;-88
2023/05/17 01:54:51;;;;;;;5.60;2.73;;;26.80;99.90;;;;;;4899894;29;20233;-88
2023/05/17 01:57:30;;;;;;;2.70;2.00;;;26.10;99.90;;;;;;4902232;29;20217;-92
2023/05/17 02:00:06;;;;;;;5.07;2.23;;;26.20;99.90;;;;;;4910169;29;20209;-91
2023/05/17 02:02:38;;;;;;;3.67;2.33;;;25.90;99.90;;;;;;4908433;29;20220;-92
2023/05/17 02:05:09;;;;;;;4.43;2.10;;;25.80;99.90;;;;;;4910620;29;20260;-92
2023/05/17 02:07:40;;;;;;;6.33;2.20;;;25.60;99.90;;;;;;4905755;29;20200;-96
2023/05/17 02:10:12;;;;;;;5.03;2.63;;;25.50;99.90;;;;;;4912191;29;20953;-90
2023/05/17 02:12:43;;;;;;;5.60;2.50;;;25.40;99.90;;;;;;4926511;29;20216;-90
2023/05/17 02:15:16;;;;;;;3.00;2.30;;;25.20;99.90;;;;;;4931453;29;20227;-91
2023/05/17 02:17:46;;;;;;;9.10;2.57;;;25.20;99.90;;;;;;4928506;29;20180;-92
2023/05/17 02:20:17;;;;;;;3.40;2.20;;;25.10;99.90;;;;;;4940981;29;20218;-90
2023/05/17 02:22:48;;;;;;;3.87;2.27;;;25.00;99.90;;;;;;4926816;29;20205;-92
2023/05/17 02:25:19;;;;;;;3.70;2.10;;;24.90;99.90;;;;;;4931790;29;20216;-91
2023/05/17 02:27:50;;;;;;;3.00;2.10;;;24.80;99.90;;;;;;4934385;29;20209;-90
2023/05/17 02:30:24;;;;;;;5.10;2.50;;;24.80;99.90;;;;;;4929868;29;20225;-91
2023/05/17 02:32:55;;;;;;;6.07;2.20;;;24.70;99.90;;;;;;4919566;29;20236;-94
2023/05/17 02:35:27;;;;;;;6.63;2.50;;;24.60;99.90;;;;;;4926764;29;20287;-93
2023/05/17 02:37:59;;;;;;;3.27;2.10;;;24.50;99.90;;;;;;4926253;29;20208;-94
2023/05/17 02:40:31;;;;;;;4.57;2.23;;;24.40;99.90;;;;;;4930521;29;20220;-90
2023/05/17 02:43:02;;;;;;;3.17;1.83;;;24.40;99.90;;;;;;4915412;29;20621;-90
2023/05/17 02:45:36;;;;;;;3.63;2.00;;;24.30;99.90;;;;;;4910807;29;20213;-91
2023/05/17 02:48:08;;;;;;;4.87;2.00;;;24.20;99.90;;;;;;4913858;29;20209;-91
2023/05/17 02:50:39;;;;;;;4.33;2.07;;;24.10;99.90;;;;;;4908947;29;20667;-91
2023/05/17 02:53:10;;;;;;;4.77;2.40;;;24.00;99.90;;;;;;4911146;29;20235;-91
2023/05/17 02:55:42;;;;;;;3.70;2.40;;;23.80;99.90;;;;;;4928749;29;20243;-89
2023/05/17 02:58:13;;;;;;;136.30;61.80;;;23.80;99.90;;;;;;4920857;29;20243;-92
2023/05/17 03:00:49;;;;;;;184.30;81.53;;;23.70;99.90;;;;;;4917592;29;20218;-91
2023/05/17 03:03:20;;;;;;;4.77;3.40;;;23.70;99.90;;;;;;4919303;29;20272;-91
2023/05/17 03:05:51;;;;;;;109.33;51.57;;;23.70;99.90;;;;;;4922483;29;20247;-94
2023/05/17 03:08:22;;;;;;;9.97;4.40;;;23.60;99.90;;;;;;4913537;29;20205;-94
2023/05/17 03:10:53;;;;;;;9.40;4.17;;;23.50;99.90;;;;;;4906134;29;20210;-93
2023/05/17 03:13:24;;;;;;;3.87;2.40;;;23.40;99.90;;;;;;4902479;29;20296;-94
2023/05/17 03:15:57;;;;;;;4.57;2.20;;;23.20;99.90;;;;;;4911292;29;20253;-94
2023/05/17 03:18:28;;;;;;;4.30;2.50;;;23.20;99.90;;;;;;4905561;29;20337;-93
2023/05/17 03:21:00;;;;;;;3.77;2.30;;;23.10;99.90;;;;;;4905219;29;20573;-94
2023/05/17 03:23:31;;;;;;;4.73;2.33;;;23.00;99.90;;;;;;4921932;29;20296;-92
2023/05/17 03:26:01;;;;;;;5.00;2.73;;;22.90;99.90;;;;;;4931612;29;20193;-92
2023/05/17 03:28:33;;;;;;;6.30;2.73;;;22.80;99.90;;;;;;4921609;29;20293;-94
2023/05/17 03:31:05;;;;;;;6.80;3.47;;;22.70;99.90;;;;;;4936412;29;20254;-92
2023/05/17 03:33:36;;;;;;;6.03;3.57;;;22.60;99.90;;;;;;4919691;29;20209;-94
2023/05/17 03:36:08;;;;;;;5.27;2.70;;;22.50;99.90;;;;;;4912551;29;20241;-94
2023/05/17 03:38:39;;;;;;;7.87;2.90;;;22.40;99.90;;;;;;4915638;29;20295;-95
2023/05/17 03:41:10;;;;;;;5.50;3.20;;;22.30;99.90;;;;;;4913361;29;20213;-95
2023/05/17 03:43:41;;;;;;;6.17;3.90;;;22.20;99.90;;;;;;4906221;29;20228;-95
2023/05/17 03:46:15;;;;;;;5.37;2.80;;;22.10;99.90;;;;;;4921230;29;20309;-95
2023/05/17 03:48:45;;;;;;;5.17;3.07;;;22.00;99.90;;;;;;4910607;29;20663;-95
2023/05/17 03:51:17;;;;;;;4.93;3.40;;;21.90;99.90;;;;;;4921552;29;20216;-96
2023/05/17 03:53:48;;;;;;;8.00;3.47;;;21.80;99.90;;;;;;4905927;29;20293;-95
2023/05/17 03:56:20;;;;;;;6.10;3.70;;;21.70;99.90;;;;;;4905274;29;20241;-96
2023/05/17 03:58:51;;;;;;;5.03;2.93;;;21.70;99.90;;;;;;4922903;29;20200;-96
2023/05/17 04:01:24;;;;;;;5.90;2.80;;;21.60;99.90;;;;;;4924325;29;20205;-96
2023/05/17 04:03:54;;;;;;;5.23;2.70;;;21.50;99.90;;;;;;4920986;29;20213;-95
2023/05/17 04:06:25;;;;;;;5.33;2.33;;;21.40;99.90;;;;;;4919383;29;20623;-96
2023/05/17 04:08:58;;;;;;;7.10;2.70;;;21.40;99.90;;;;;;4925163;29;20211;-96
2023/05/17 04:11:29;;;;;;;10.87;2.67;;;21.30;99.90;;;;;;4901040;29;20579;-93
2023/05/17 04:14:00;;;;;;;5.57;2.90;;;21.30;99.90;;;;;;4914480;29;20224;-94
2023/05/17 04:16:32;;;;;;;3.90;2.90;;;21.30;99.90;;;;;;4922702;29;20240;-93
2023/05/17 04:19:04;;;;;;;4.07;2.70;;;21.20;99.90;;;;;;4913084;29;20236;-96
2023/05/17 04:21:35;;;;;;;5.60;3.03;;;21.20;99.90;;;;;;4911438;29;20256;-95
2023/05/17 04:24:07;;;;;;;5.00;2.73;;;21.10;99.90;;;;;;4927483;29;20231;-93
2023/05/17 04:26:38;;;;;;;4.60;2.57;;;21.00;99.90;;;;;;4941686;29;20220;-95
2023/05/17 04:29:09;;;;;;;4.83;2.53;;;20.90;99.90;;;;;;4925056;29;20216;-93
2023/05/17 04:31:42;;;;;;;3.80;2.90;;;20.90;99.90;;;;;;4914733;29;20201;-93
2023/05/17 04:34:13;;;;;;;5.43;2.50;;;20.70;99.90;;;;;;4913670;29;20189;-94
2023/05/17 04:36:44;;;;;;;6.40;3.07;;;20.70;99.90;;;;;;4921471;29;20225;-94
2023/05/17 04:39:15;;;;;;;5.93;2.90;;;20.70;99.90;;;;;;4936789;29;20229;-94
2023/05/17 04:41:46;;;;;;;4.40;2.60;;;20.60;99.90;;;;;;4930296;29;20196;-96
2023/05/17 04:44:17;;;;;;;6.20;2.83;;;20.50;99.90;;;;;;4937024;29;20276;-93
2023/05/17 04:46:50;;;;;;;4.37;2.70;;;20.50;99.90;;;;;;4919867;29;20215;-95
2023/05/17 04:49:23;;;;;;;6.13;2.83;;;20.50;99.90;;;;;;4913663;29;20211;-96
2023/05/17 04:51:54;;;;;;;4.93;3.13;;;20.40;99.90;;;;;;4921420;29;20215;-95
2023/05/17 04:54:25;;;;;;;3.70;2.90;;;20.40;99.90;;;;;;4914412;29;20663;-94
2023/05/17 04:56:56;;;;;;;5.77;2.97;;;20.40;99.90;;;;;;4904205;29;20252;-95
2023/05/17 04:59:27;;;;;;;4.20;2.80;;;20.40;99.90;;;;;;4907462;29;20342;-96
2023/05/17 05:02:00;;;;;;;6.63;3.10;;;20.30;99.90;;;;;;4915288;29;20278;-96
2023/05/17 05:04:31;;;;;;;5.00;2.87;;;20.30;99.90;;;;;;4920073;29;20205;-95
2023/05/17 05:07:02;;;;;;;6.53;2.73;;;20.20;99.90;;;;;;4912726;29;20201;-95
2023/05/17 05:09:33;;;;;;;5.10;3.13;;;20.20;99.90;;;;;;4914133;29;20204;-95
2023/05/17 05:12:05;;;;;;;4.03;2.67;;;20.20;99.90;;;;;;4924463;29;20205;-95
2023/05/17 05:14:36;;;;;;;6.73;3.10;;;20.10;99.90;;;;;;4909998;29;20206;-95
2023/05/17 05:17:10;;;;;;;4.67;2.93;;;20.10;99.90;;;;;;4918493;29;20236;-96
2023/05/17 05:19:41;;;;;;;7.13;3.20;;;20.00;99.90;;;;;;4932071;29;20240;-93
2023/05/17 05:22:12;;;;;;;8.07;3.30;;;20.00;99.90;;;;;;4924078;29;20676;-95
2023/05/17 05:24:43;;;;;;;5.80;3.10;;;20.00;99.90;;;;;;4919699;29;20212;-95
2023/05/17 05:27:14;;;;;;;5.90;3.40;;;20.00;99.90;;;;;;4920329;29;20224;-96
2023/05/17 05:29:45;;;;;;;5.23;2.97;;;20.00;99.90;;;;;;4913058;29;20332;-96
2023/05/17 05:32:18;;;;;;;3.70;2.80;;;19.90;99.90;;;;;;4932277;29;20213;-94
2023/05/17 05:34:48;;;;;;;7.60;3.40;;;19.90;99.90;;;;;;4924554;29;20263;-94
2023/05/17 05:37:19;;;;;;;4.83;3.17;;;19.80;99.90;;;;;;4922389;29;20393;-96
2023/05/17 05:39:50;;;;;;;5.37;3.00;;;19.80;99.90;;;;;;4912935;29;20223;-96
2023/05/17 05:42:21;;;;;;;7.80;3.40;;;19.80;99.90;;;;;;4914115;29;20702;-96
2023/05/17 05:44:52;;;;;;;7.77;3.80;;;19.80;99.90;;;;;;4921177;29;20209;-94
2023/05/17 05:47:25;;;;;;;7.07;3.47;;;19.70;99.90;;;;;;4914365;29;20258;-94
2023/05/17 05:49:55;;;;;;;9.07;4.10;;;19.70;99.90;;;;;;4921239;29;20209;-94
2023/05/17 05:52:27;;;;;;;9.07;3.80;;;19.60;99.90;;;;;;4916896;29;20688;-95
2023/05/17 05:54:59;;;;;;;7.13;3.30;;;19.50;99.90;;;;;;4910542;29;20299;-95
2023/05/17 05:57:29;;;;;;;7.30;3.37;;;19.50;99.90;;;;;;4912533;29;20606;-94
2023/05/17 06:00:00;;;;;;;6.60;3.83;;;19.30;99.90;;;;;;4920050;29;20290;-96
2023/05/17 06:02:34;;;;;;;5.07;3.17;;;19.30;99.90;;;;;;4903076;29;20214;-94
2023/05/17 06:05:05;;;;;;;7.63;3.33;;;19.20;99.90;;;;;;4908369;29;20217;-96
2023/05/17 06:07:36;;;;;;;6.47;3.47;;;19.10;99.90;;;;;;4901398;29;20690;-95
2023/05/17 06:10:08;;;;;;;5.80;3.37;;;19.00;99.90;;;;;;4916896;29;20213;-95
2023/05/17 06:12:39;;;;;;;7.90;4.00;;;19.00;99.90;;;;;;4912996;29;20209;-95
2023/05/17 06:15:11;;;;;;;6.80;3.77;;;18.90;99.90;;;;;;4917588;29;20209;-95
2023/05/17 06:17:44;;;;;;;8.00;3.43;;;18.90;99.90;;;;;;4901114;29;20342;-95
2023/05/17 06:20:15;;;;;;;5.40;3.60;;;18.80;99.90;;;;;;4906587;29;20299;-95
2023/05/17 06:22:47;;;;;;;6.43;3.60;;;18.70;99.90;;;;;;4918275;29;20252;-96
2023/05/17 06:25:18;;;;;;;5.20;3.60;;;18.60;99.90;;;;;;4909982;29;20221;-96
2023/05/17 06:27:50;;;;;;;9.93;3.57;;;18.60;99.90;;;;;;4914661;29;20225;-96
2023/05/17 06:30:22;;;;;;;7.27;4.03;;;18.50;99.90;;;;;;4915545;29;20209;-96
2023/05/17 06:32:55;;;;;;;3.90;3.27;;;18.50;99.90;;;;;;4907473;29;20206;-95
2023/05/17 06:35:27;;;;;;;4.90;3.63;;;18.40;99.90;;;;;;4921703;29;20206;-96
2023/05/17 06:38:21;;;;;;;7.87;3.97;;;18.30;99.90;;;;;;4901502;29;20218;-96
2023/05/17 06:40:54;;;;;;;6.80;3.70;;;18.30;99.90;;;;;;4904525;29;20244;-96
2023/05/17 06:43:25;;;;;;;6.73;3.83;;;18.20;99.90;;;;;;4912878;29;20219;-95
2023/05/17 06:45:55;;;;;;;5.07;4.00;;;18.20;99.90;;;;;;4934240;29;20186;-95
2023/05/17 06:48:28;;;;;;;7.63;3.90;;;18.30;99.90;;;;;;4923331;29;20201;-95
2023/05/17 06:50:59;;;;;;;7.17;3.60;;;18.30;99.90;;;;;;4935152;29;20273;-95
2023/05/17 06:53:29;;;;;;;11.33;4.30;;;18.30;99.90;;;;;;4910532;29;20209;-96
2023/05/17 06:56:01;;;;;;;8.17;3.83;;;18.30;99.90;;;;;;4920273;29;20673;-92
2023/05/17 06:58:34;;;;;;;5.87;3.30;;;18.30;99.90;;;;;;4910539;29;20278;-95
2023/05/17 07:01:05;;;;;;;7.60;3.50;;;18.30;99.90;;;;;;4903191;29;20214;-96
2023/05/17 07:03:38;;;;;;;5.93;3.43;;;18.30;99.90;;;;;;4900667;29;20214;-95
2023/05/17 07:06:09;;;;;;;6.13;3.80;;;18.20;99.90;;;;;;4903330;29;20285;-96
2023/05/17 07:08:43;;;;;;;8.20;3.10;;;18.20;99.90;;;;;;4900152;29;20214;-95
2023/05/17 07:11:14;;;;;;;8.97;3.73;;;18.10;99.90;;;;;;4901014;29;20214;-96
2023/05/17 07:13:45;;;;;;;4.10;3.53;;;18.00;99.90;;;;;;4901206;29;20217;-96
2023/05/17 07:16:16;;;;;;;7.20;3.87;;;18.00;99.90;;;;;;4910192;29;20666;-96
2023/05/17 07:18:49;;;;;;;8.13;3.33;;;17.90;99.90;;;;;;4907064;29;20915;-96
2023/05/17 07:21:22;;;;;;;7.80;3.60;;;17.80;99.90;;;;;;4921540;29;20259;-96
2023/05/17 07:23:53;;;;;;;5.90;2.97;;;17.80;99.90;;;;;;4916406;29;20220;-96
2023/05/17 07:26:24;;;;;;;7.30;3.20;;;17.70;99.90;;;;;;4916337;29;20221;-95
2023/05/17 07:28:55;;;;;;;6.87;2.93;;;17.60;99.90;;;;;;4923002;29;20737;-96
2023/05/17 07:31:26;;;;;;;6.70;3.10;;;17.60;99.90;;;;;;4915250;29;20248;-96
2023/05/17 07:33:59;;;;;;;8.87;3.50;;;17.50;99.90;;;;;;4919993;29;20213;-94
2023/05/17 07:36:30;;;;;;;9.00;2.60;;;17.40;99.90;;;;;;4917040;29;20217;-95
2023/05/17 07:39:05;;;;;;;4.63;3.00;;;17.40;99.90;;;;;;4901343;29;20291;-96
2023/05/17 07:41:37;;;;;;;6.50;2.90;;;17.40;99.90;;;;;;4920336;29;20221;-96
2023/05/17 07:44:07;;;;;;;5.03;2.97;;;17.30;99.90;;;;;;4923789;29;20228;-96
2023/05/17 07:46:38;;;;;;;4.53;2.80;;;17.20;99.90;;;;;;4911100;29;20306;-96
2023/05/17 07:49:12;;;;;;;5.07;2.73;;;17.10;99.90;;;;;;4901646;29;20304;-96
2023/05/17 07:51:44;;;;;;;4.57;2.77;;;17.10;99.90;;;;;;4907503;29;20254;-95
2023/05/17 07:54:25;;;;;;;4.10;2.90;;;17.00;99.90;;;;;;4904551;29;20248;-95
2023/05/17 07:56:58;;;;;;;7.03;2.90;;;16.90;99.90;;;;;;4918241;29;20710;-94
2023/05/17 07:59:30;;;;;;;10.90;2.90;;;16.90;99.90;;;;;;4901106;29;20213;-96
2023/05/17 08:02:01;;;;;;;4.93;2.77;;;16.80;99.90;;;;;;4904794;29;20213;-95
2023/05/17 08:04:36;;;;;;;6.13;2.73;;;16.90;99.90;;;;;;4912292;29;20217;-96
2023/05/17 08:07:08;;;;;;;6.10;3.10;;;16.80;99.90;;;;;;4912984;29;20231;-92
2023/05/17 08:09:39;;;;;;;6.53;2.90;;;16.70;99.90;;;;;;4910101;29;20205;-93
2023/05/17 08:12:10;;;;;;;6.93;3.23;;;16.70;99.90;;;;;;4900748;29;20219;-94
2023/05/17 08:14:41;;;;;;;6.67;3.00;;;16.60;99.90;;;;;;4906880;29;20233;-94
2023/05/17 08:17:12;;;;;;;6.87;3.07;;;16.60;99.90;;;;;;4902020;29;20271;-94
2023/05/17 08:19:45;;;;;;;5.83;2.93;;;16.50;99.90;;;;;;4910689;29;20217;-96
2023/05/17 08:22:17;;;;;;;6.07;3.07;;;16.50;99.90;;;;;;4911941;29;20206;-95
2023/05/17 08:24:48;;;;;;;5.47;3.00;;;16.50;99.90;;;;;;4912188;29;20311;-96
2023/05/17 08:27:19;;;;;;;6.53;3.00;;;16.50;99.90;;;;;;4918710;29;20219;-96
2023/05/17 08:29:52;;;;;;;4.10;2.60;;;16.40;99.90;;;;;;4911738;29;20209;-96
2023/05/17 08:32:24;;;;;;;5.23;2.60;;;16.40;99.90;;;;;;4918584;29;20754;-95
2023/05/17 08:34:58;;;;;;;4.17;2.67;;;16.30;99.90;;;;;;4925222;29;20577;-95
2023/05/17 08:37:29;;;;;;;7.77;3.40;;;16.30;99.90;;;;;;4913720;29;20785;-96
2023/05/17 08:40:00;;;;;;;7.83;3.40;;;16.20;99.90;;;;;;4914432;29;20216;-94
2023/05/17 08:42:32;;;;;;;5.70;3.17;;;16.10;99.90;;;;;;4900944;29;20205;-95
2023/05/17 08:45:03;;;;;;;5.43;2.73;;;16.10;99.90;;;;;;4917746;29;20208;-95
2023/05/17 08:47:36;;;;;;;4.77;2.87;;;16.10;99.90;;;;;;4915609;29;20241;-94
2023/05/17 08:50:11;;;;;;;5.43;3.20;;;16.10;99.90;;;;;;4940993;28;20253;-94
2023/05/17 08:52:45;;;;;;;6.33;3.13;;;16.10;99.90;;;;;;4939088;29;20254;-92
2023/05/17 08:55:17;;;;;;;9.03;3.13;;;16.20;99.90;;;;;;4929932;29;20189;-94
2023/05/17 08:57:48;;;;;;;6.63;2.93;;;16.20;99.90;;;;;;4924824;29;20260;-95
2023/05/17 09:00:24;;;;;;;7.80;3.30;;;16.20;99.90;;;;;;4924639;29;20189;-96
2023/05/17 09:02:55;;;;;;;7.07;3.33;;;16.10;99.90;;;;;;4915787;29;20292;-95
2023/05/17 09:05:28;;;;;;;5.37;3.27;;;16.10;99.90;;;;;;4910930;29;20213;-96
2023/05/17 09:08:01;;;;;;;6.27;3.43;;;16.00;99.90;;;;;;4915703;29;20206;-95
2023/05/17 09:10:32;;;;;;;5.57;3.07;;;16.00;99.90;;;;;;4918745;29;20209;-95
2023/05/17 09:13:03;;;;;;;6.53;3.40;;;15.90;99.90;;;;;;4918763;29;20215;-94
2023/05/17 09:15:34;;;;;;;8.40;3.50;;;16.00;99.90;;;;;;4910328;29;20296;-94
2023/05/17 09:18:05;;;;;;;5.20;3.30;;;15.90;99.90;;;;;;4917005;29;20243;-94
2023/05/17 09:20:38;;;;;;;6.40;3.33;;;15.80;99.90;;;;;;4920111;29;20220;-95
2023/05/17 09:23:12;;;;;;;5.63;3.40;;;15.70;99.90;;;;;;4922207;29;20237;-95
2023/05/17 09:25:49;;;;;;;8.73;3.97;;;15.70;99.90;;;;;;4908318;29;20206;-95
2023/05/17 09:28:21;;;;;;;5.83;3.10;;;15.70;99.90;;;;;;4901535;29;20710;-96
2023/05/17 09:30:52;;;;;;;5.70;3.40;;;15.70;99.90;;;;;;4919913;29;20212;-96
2023/05/17 09:33:24;;;;;;;4.10;3.20;;;15.60;99.90;;;;;;4905891;29;20370;-95
2023/05/17 09:35:57;;;;;;;5.03;3.30;;;15.60;99.90;;;;;;4921296;29;20205;-96
2023/05/17 09:38:28;;;;;;;4.87;3.07;;;15.60;99.90;;;;;;4919970;29;20237;-95
2023/05/17 09:41:02;;;;;;;8.03;3.60;;;15.50;99.90;;;;;;4921905;29;20761;-96
2023/05/17 09:43:34;;;;;;;8.00;3.17;;;15.50;99.90;;;;;;4920732;29;20211;-96
2023/05/17 09:46:05;;;;;;;3.13;2.73;;;15.60;99.90;;;;;;4922314;29;20288;-96
2023/05/17 09:48:39;;;;;;;5.90;3.20;;;15.50;99.90;;;;;;4919005;29;20239;-96
2023/05/17 09:51:14;;;;;;;5.07;3.07;;;15.50;99.90;;;;;;4922858;29;20261;-95
2023/05/17 09:53:45;;;;;;;6.70;3.23;;;15.40;99.90;;;;;;4918246;29;20205;-95
2023/05/17 09:56:18;;;;;;;7.20;3.50;;;15.50;99.90;;;;;;4916019;29;20210;-95
2023/05/17 09:58:51;;;;;;;11.60;3.40;;;15.50;99.90;;;;;;4910233;29;20229;-96
2023/05/17 10:01:22;;;;;;;6.50;2.90;;;15.50;99.90;;;;;;4908823;29;20607;-95
2023/05/17 10:03:54;;;;;;;9.07;2.97;;;15.50;99.90;;;;;;4907774;29;20213;-95
2023/05/17 10:06:29;;;;;;;4.43;2.70;;;15.40;99.90;;;;;;4912265;29;20202;-94
2023/05/17 10:09:17;;;;;;;7.90;3.20;;;15.40;99.90;;;;;;4920806;29;20215;-95
2023/05/17 10:11:49;;;;;;;6.10;3.10;;;15.30;99.90;;;;;;4912772;29;20309;-96
2023/05/17 10:14:23;;;;;;;6.33;3.13;;;15.30;99.90;;;;;;4907518;29;20228;-96
2023/05/17 10:16:56;;;;;;;7.23;2.97;;;15.30;99.90;;;;;;4920955;29;20590;-94
2023/05/17 10:19:27;;;;;;;8.17;3.07;;;15.20;99.90;;;;;;4920723;29;20324;-96
2023/05/17 10:22:02;;;;;;;6.53;2.83;;;15.20;99.90;;;;;;4913490;29;20210;-92
2023/05/17 10:24:52;;;;;;;6.47;3.10;;;15.20;99.90;;;;;;4901976;29;20221;-96
2023/05/17 10:27:24;;;;;;;3.80;2.80;;;15.10;99.90;;;;;;4909518;29;20205;-95
2023/05/17 10:29:55;;;;;;;5.27;2.70;;;15.10;99.90;;;;;;4921360;29;20300;-96
2023/05/17 10:32:29;;;;;;;8.43;3.00;;;15.10;99.90;;;;;;4922425;29;20216;-94
2023/05/17 10:35:05;;;;;;;8.27;3.00;;;15.10;99.90;;;;;;4926054;29;20216;-95
2023/05/17 10:37:43;;;;;;;8.17;2.80;;;15.10;99.90;;;;;;4939331;29;20223;-95
2023/05/17 10:40:16;;;;;;;5.33;2.87;;;15.10;99.90;;;;;;4939415;29;20240;-96
2023/05/17 10:42:51;;;;;;;6.97;2.90;;;15.10;99.90;;;;;;4938950;29;20219;-96
2023/05/17 10:45:24;;;;;;;12.53;2.93;;;15.10;99.90;;;;;;4953463;29;20195;-96
2023/05/17 10:47:56;;;;;;;5.73;2.67;;;15.10;99.90;;;;;;4943719;29;20192;-95
2023/05/17 10:50:30;;;;;;;6.00;3.43;;;15.20;99.90;;;;;;4934298;29;20210;-95
2023/05/17 10:53:08;;;;;;;4.70;2.80;;;15.20;99.90;;;;;;4922528;29;20190;-96
2023/05/17 10:55:42;;;;;;;4.17;2.80;;;15.20;99.90;;;;;;4935306;29;20189;-92
2023/05/17 10:58:18;;;;;;;4.83;2.67;;;15.20;99.90;;;;;;4942056;28;20232;-96
2023/05/17 11:00:53;;;;;;;5.20;3.00;;;15.20;99.90;;;;;;4935843;29;20216;-95
2023/05/17 11:03:29;;;;;;;5.03;2.83;;;15.20;99.90;;;;;;4931543;29;20212;-96
2023/05/17 11:06:20;;;;;;;5.17;2.70;;;15.20;99.90;;;;;;4920428;29;20197;-95
2023/05/17 11:09:17;;;;;;;5.60;3.10;;;15.20;99.90;;;;;;4941291;29;20209;-96
2023/05/17 11:12:07;;;;;;;6.87;3.20;;;15.10;99.90;;;;;;4941238;29;20220;-96
2023/05/17 11:14:53;;;;;;;6.43;2.90;;;15.00;99.90;;;;;;4933393;29;20292;-96
2023/05/17 11:17:27;;;;;;;5.00;2.83;;;15.00;99.90;;;;;;4924994;29;20374;-96
2023/05/17 11:20:05;;;;;;;4.80;2.80;;;15.10;99.90;;;;;;4920834;29;20324;-96
2023/05/17 11:22:38;;;;;;;7.50;3.00;;;15.00;99.90;;;;;;4920212;29;20205;-96
2023/05/17 11:25:13;;;;;;;7.43;2.57;;;15.00;99.90;;;;;;4917087;29;20222;-95
2023/05/17 11:27:48;;;;;;;5.63;2.83;;;15.10;99.90;;;;;;4918091;29;20211;-96
2023/05/17 11:30:23;;;;;;;6.43;3.27;;;15.00;99.90;;;;;;4920728;29;20554;-96
2023/05/17 11:32:55;;;;;;;6.23;2.90;;;15.00;99.90;;;;;;4920224;29;20208;-96
2023/05/17 11:35:29;;;;;;;6.57;3.00;;;15.00;99.90;;;;;;4920281;29;20208;-94
2023/05/17 11:38:18;;;;;;;4.17;3.00;;;15.00;99.90;;;;;;4913404;29;20651;-96
2023/05/17 11:40:54;;;;;;;7.57;3.20;;;15.00;99.90;;;;;;4921117;29;20236;-95
2023/05/17 11:43:29;;;;;;;5.20;2.87;;;15.00;99.90;;;;;;4935326;29;20209;-96
2023/05/17 11:46:02;;;;;;;5.30;3.03;;;15.00;99.90;;;;;;4931893;29;20285;-94
2023/05/17 11:48:34;;;;;;;6.47;3.10;;;15.00;99.90;;;;;;4928370;29;20273;-93
2023/05/17 11:51:05;;;;;;;6.07;3.10;;;15.00;99.90;;;;;;4939757;28;20201;-96
2023/05/17 11:53:38;;;;;;;7.10;3.17;;;15.00;99.90;;;;;;4940307;28;20225;-95
2023/05/17 11:56:11;;;;;;;8.90;3.20;;;15.00;99.90;;;;;;4931559;29;20197;-96
2023/05/17 11:58:43;;;;;;;7.00;3.13;;;15.00;99.90;;;;;;4939543;29;20199;-96
2023/05/17 12:01:13;;;;;;;6.97;3.27;;;15.00;99.90;;;;;;4946770;29;20251;-95
2023/05/17 12:03:46;;;;;;;4.17;2.73;;;14.90;99.90;;;;;;4919306;29;20272;-95
2023/05/17 12:06:18;;;;;;;4.13;2.90;;;14.90;99.90;;;;;;4928416;29;20232;-95
2023/05/17 12:08:50;;;;;;;5.33;3.17;;;14.90;99.90;;;;;;4914489;29;20216;-96
2023/05/17 12:11:23;;;;;;;5.43;2.90;;;14.90;99.90;;;;;;4930728;29;20204;-95
2023/05/17 12:13:53;;;;;;;7.20;3.20;;;14.90;99.90;;;;;;4935910;29;20230;-95
2023/05/17 12:16:25;;;;;;;3.83;2.90;;;14.80;99.90;;;;;;4918668;29;20217;-95
2023/05/17 12:18:58;;;;;;;7.90;3.30;;;14.80;99.90;;;;;;4918030;29;20287;-95
2023/05/17 12:21:29;;;;;;;6.60;2.70;;;14.70;99.90;;;;;;4907720;29;20213;-96
2023/05/17 12:24:00;;;;;;;4.73;3.00;;;14.70;99.90;;;;;;4915038;29;20216;-95
2023/05/17 12:26:32;;;;;;;4.07;3.10;;;14.60;99.90;;;;;;4917298;29;20213;-95
2023/05/17 12:29:03;;;;;;;5.00;3.03;;;14.60;99.90;;;;;;4918267;29;20674;-96
2023/05/17 12:31:37;;;;;;;5.20;3.10;;;14.60;99.90;;;;;;4919097;29;20217;-96
2023/05/17 12:34:11;;;;;;;9.10;3.50;;;14.60;99.90;;;;;;4918704;29;20217;-96
2023/05/17 12:36:42;;;;;;;6.03;3.40;;;14.60;99.90;;;;;;4918174;29;20221;-94
2023/05/17 12:39:16;;;;;;;6.67;3.40;;;14.60;99.90;;;;;;4930289;29;20300;-96
2023/05/17 12:41:50;;;;;;;6.73;3.53;;;14.50;99.90;;;;;;4951885;28;20259;-96
2023/05/17 12:44:22;;;;;;;5.70;3.37;;;14.50;99.90;;;;;;4939159;28;20231;-96
2023/05/17 12:46:56;;;;;;;4.97;3.00;;;14.40;99.90;;;;;;4937540;29;20220;-96
2023/05/17 12:49:28;;;;;;;6.70;3.33;;;14.40;99.90;;;;;;4919481;29;20578;-95
2023/05/17 12:52:05;;;;;;;7.03;3.43;;;14.40;99.90;;;;;;4933541;29;20727;-95
2023/05/17 12:54:36;;;;;;;6.40;3.20;;;14.40;99.90;;;;;;4928341;29;20605;-96
2023/05/17 12:57:15;;;;;;;6.40;3.10;;;14.30;99.90;;;;;;4939376;29;20216;-94
2023/05/17 12:59:50;;;;;;;5.10;3.23;;;14.30;99.90;;;;;;4925935;29;20569;-95
2023/05/17 13:02:24;;;;;;;5.30;2.97;;;14.40;99.90;;;;;;4914117;29;20224;-96
2023/05/17 13:04:55;;;;;;;10.27;3.53;;;14.40;99.90;;;;;;4922983;29;20205;-96
2023/05/17 13:07:26;;;;;;;7.03;3.13;;;14.30;99.90;;;;;;4917335;29;20264;-96
2023/05/17 13:09:57;;;;;;;7.17;3.20;;;14.40;99.90;;;;;;4936004;29;20212;-96
2023/05/17 13:12:30;;;;;;;6.13;3.17;;;14.40;99.90;;;;;;4941889;29;20210;-95
2023/05/17 13:15:01;;;;;;;5.43;3.20;;;14.30;99.90;;;;;;4941413;29;20224;-95